Terminal Aerodrome Forecast
Issued by NWS

Home | Current Version | Previous Version | Text Only | Print | Product List | Glossary On
Versions: 1 2 3 4 5 6 7 8 9 10 11 12
000
FTUS44 KCRP 222320
TAFLRD
TAF
KLRD 222320Z 2300/2324 VRB05KT P6SM SKC
     FM230400 14013KT P6SM FEW090=

USA.gov is the U.S. government's official web portal to all federal, state and local government web resources and services.